Nogal, New Mexico
Current Conditions -  °F | °C
As of 9:15 PM on Wednesday 26 Nov 2014 (Local Time) from KSRR Reporting Station
Clear Clear  
Wind Chill: 43°   Ceiling: Unl
Heat Index: 46°   Visibility: 10mi
Dew Point: 19°   Wind: 7mph
Humidity: 34%   Direction: 300°WNW
Pressure: 30.41"   Gusts: NA
Location:  33.56°N, 105.71°W
Report Text: KSRR 270415Z AUTO 30006KT 10SM CLR 08/M07 A3041 RMK AO2
Loading
Personal Weather Stations






























Interactive Weather Map New forecast layout! Learn more

10-Day Weather Forecast

Advertisements
Track Severe Weather on mobile